Impacts TAF Board
For situational awareness. Not to be used for flight planning purposes.
IDs:

KDAB - Daytona Beach Intl, FL, US

Issued at 2338 UTC 04 Jul 2022
Updated at 0036 UTC 05 Jul 2022
Potential Impact None Slight Moderate High
Time<<05/13Z 05/14Z 05/15Z 05/16Z 05/17Z 05/18Z 05/19Z 05/20Z 05/21Z 05/22Z 05/23Z 06/00Z 06/01Z>>
Type PRVL PRVL PRVL PRVL PRVL PRVL PRVL PRVL PRVL PRVL PRVL
VIS >6 >6 >6 >6 >6 >6 >6 >6 >6 >6 >6
CIG -- -- -- -- -- -- -- -- -- -- --
Cover FEW FEW FEW FEW FEW SCT SCT SCT SCT SCT FEW
FltCat VFR VFR VFR VFR VFR VFR VFR VFR VFR VFR VFR
WX -- -- -- -- -- VCTS VCTS VCTS VCTS VCTS --
WDir VRB 120 120 120 120 90 90 90 90 90 120
WSpd 3 7 7 7 7 9 9 9 9 9 8
WGst -- -- -- -- -- -- -- -- -- -- --
WSHgt -- -- -- -- -- -- -- -- -- -- --
WSDir -- -- -- -- -- -- -- -- -- -- --
WSSpd -- -- -- -- -- -- -- -- -- -- --
R07/25
XWnd VRB -6 -6 -6 -6 -4 -4 -4 -4 -4 -7 0 0
R16/34
XWnd VRB 4 4 4 4 8 8 8 8 8 5 0 0
Raw TAF
KDAB 042338Z 0500/0524 VRB03KT P6SM FEW030
  FM051400 12007KT P6SM FEW030
  FM051800 09009KT P6SM VCTS SCT035CB SCT250
  FM052300 12008KT P6SM FEW040


METAR Board
Radar Display
Forecast Discussion
For situational awareness. Not to be used for flight planning purposes.